Etusivu
METAR-TAF:

METAR-TAF

Lentoasemat :

Peking, Kiina

Pekingin kansainvälinen lentoasema

Leveyspiiri: 39-56N, Pituuspiiri: 116-17E, korkeus merenpinnasta: 55 m

Tämänhetkinen sää

Tämä raportti tehtiin 29 minuuttia sitten, kello 23.30 UTC
Tuuli 6 kn pohjoisesta
Lämpötila 21°C
Kosteus 83%
Ilmanpaine 1005 hPa
Näkyvyys 10 km tai enemmän
Hajonneita pilviä 3300 ft:n korkeudessa

METAR: ZBAA 232330Z 36003MPS 9999 BKN033 21/18 Q1005 NOSIG

Aika: 07:59 (23:59 UTC)

Sääennuste

Tämä raportti tehtiin 8 tuntia ja 39 minuuttia sitten, kello 15.20 UTC
Ennuste voimassa 23. päivästä klo 18 UTC - 24. päivään klo 18 UTC
Tuuli 8 kn pohjoisesta/koillisesta
Näkyvyys: 5000 m
Hajonneita pilviä 4000 ft:n korkeudessa
heikkoja vesikuuroja, utua

TAF: ZBAA 231520Z 2318/2418 02004MPS 5000 -SHRA BR BKN040 TX24/2407Z TN18/2321Z

Säähavainnot ja -ennusteet yli 4000 lentoasemalta (METAR- ja TAF-raportit).

Käytössä olevat sääasemat on merkitty karttaan keltaisilla ja punaisilla pisteillä.

Aseta hiiri pisteen päälle nähdäksesi sääaseman nimen.

Klikkaa sitten nähdäksesi säähavainnot ja -ennusteet.

Kartan vaihtaminen: klikkaa mustalla rastilla varustettuja vihreitä pisteitä, niin voit zoomata sisään; viivalla varustettua vihreää pistettä, niin voit zoomata ulos tai vihreitä nuolia, niin pääset viereisille kartoille.


METAR-TAF: